Time;durP1;ratioP1;P1;durP2;ratioP2;P2;SDS_P1;SDS_P2;PMS_P1;PMS_P2;Temp;Humidity;BMP_temperature;BMP_pressure;BME280_temperature;BME280_humidity;BME280_pressure;Samples;Min_cycle;Max_cycle;Signal;HPM_P1;HPM_P2
2022/06/20 00:01:11;;;;;;;8.32;1.30;;;16.50;99.90;;;;;;5092150;28;20466;-72
2022/06/20 00:03:41;;;;;;;7.38;1.15;;;16.50;99.90;;;;;;5075681;28;20048;-73
2022/06/20 00:06:19;;;;;;;8.02;1.20;;;16.50;99.90;;;;;;5075204;28;20044;-73
2022/06/20 00:08:45;;;;;;;7.72;1.52;;;16.60;99.90;;;;;;5074711;28;20080;-73
2022/06/20 00:11:17;;;;;;;9.30;1.10;;;16.60;99.90;;;;;;5075129;28;20091;-73
2022/06/20 00:13:46;;;;;;;6.22;1.00;;;16.50;99.90;;;;;;5075918;28;20047;-73
2022/06/20 00:16:15;;;;;;;6.75;1.10;;;16.60;99.90;;;;;;5075118;28;20486;-73
2022/06/20 00:18:42;;;;;;;6.95;1.20;;;16.60;99.90;;;;;;5074660;28;20086;-73
2022/06/20 00:21:17;;;;;;;4.10;1.08;;;16.50;99.90;;;;;;5074667;28;20064;-73
2022/06/20 00:23:43;;;;;;;5.05;1.10;;;16.50;99.90;;;;;;5091590;28;20399;-73
2022/06/20 00:26:09;;;;;;;8.15;1.35;;;16.50;99.90;;;;;;5074872;28;20048;-73
2022/06/20 00:28:35;;;;;;;4.75;1.33;;;16.50;99.90;;;;;;5074076;28;20049;-73
2022/06/20 00:31:02;;;;;;;3.78;1.02;;;16.50;99.90;;;;;;5074734;28;20052;-73
2022/06/20 00:33:27;;;;;;;9.10;1.38;;;16.40;99.90;;;;;;5075678;28;20052;-73
2022/06/20 00:35:53;;;;;;;13.93;1.85;;;16.50;99.90;;;;;;5074499;28;20537;-73
2022/06/20 00:38:22;;;;;;;4.45;1.50;;;16.50;99.90;;;;;;5075366;28;20132;-73
2022/06/20 00:40:53;;;;;;;9.73;1.50;;;16.40;99.90;;;;;;5091318;28;20052;-73
2022/06/20 00:43:42;;;;;;;5.03;1.15;;;16.40;99.90;;;;;;5074710;28;20052;-73
2022/06/20 00:46:36;;;;;;;5.82;1.33;;;16.40;99.90;;;;;;5074202;28;20053;-73
2022/06/20 00:49:25;;;;;;;5.20;1.10;;;16.40;99.90;;;;;;5075236;28;20143;-73
2022/06/20 00:52:37;;;;;;;6.47;1.52;;;16.40;99.90;;;;;;5074598;28;20444;-72
2022/06/20 00:55:24;;;;;;;8.07;1.60;;;16.40;99.90;;;;;;5072155;28;20056;-73
2022/06/20 00:57:55;;;;;;;7.47;1.40;;;16.40;99.90;;;;;;5074135;28;20055;-73
2022/06/20 01:00:25;;;;;;;8.98;1.98;;;16.40;99.90;;;;;;5073723;28;20053;-72
2022/06/20 01:03:07;;;;;;;7.90;1.33;;;16.40;99.90;;;;;;5074879;28;20048;-73
2022/06/20 01:05:53;;;;;;;6.50;1.52;;;16.40;99.90;;;;;;5059219;28;20044;-73
2022/06/20 01:08:29;;;;;;;7.10;1.67;;;16.30;99.90;;;;;;5073717;28;20055;-73
2022/06/20 01:11:00;;;;;;;4.78;1.23;;;16.40;99.90;;;;;;5073520;28;20508;-73
2022/06/20 01:13:26;;;;;;;4.20;1.40;;;16.30;99.90;;;;;;5073962;28;20487;-73
2022/06/20 01:16:14;;;;;;;7.57;1.23;;;16.10;99.90;;;;;;5073992;28;20521;-73
2022/06/20 01:18:47;;;;;;;8.23;1.35;;;16.10;99.90;;;;;;5066768;28;20052;-73
2022/06/20 01:21:28;;;;;;;3.92;1.08;;;16.00;99.90;;;;;;5073666;28;20052;-73
2022/06/20 01:24:23;;;;;;;10.13;1.58;;;15.90;99.90;;;;;;5074400;28;20448;-73
2022/06/20 01:27:24;;;;;;;6.32;1.20;;;15.90;99.90;;;;;;5074482;28;20048;-73
2022/06/20 01:29:49;;;;;;;4.63;1.30;;;15.80;99.90;;;;;;5072976;28;20056;-73
2022/06/20 01:32:15;;;;;;;4.35;1.35;;;15.80;99.90;;;;;;5074202;28;20056;-73
2022/06/20 01:34:41;;;;;;;3.05;1.10;;;15.70;99.90;;;;;;5073596;28;20081;-73
2022/06/20 01:37:25;;;;;;;7.88;1.45;;;15.70;99.90;;;;;;5073371;28;20076;-73
2022/06/20 01:39:54;;;;;;;6.70;1.52;;;15.60;99.90;;;;;;5073623;28;20052;-73
2022/06/20 01:42:21;;;;;;;6.75;1.42;;;15.60;99.90;;;;;;5074084;28;20056;-74
2022/06/20 01:44:46;;;;;;;10.15;1.88;;;15.60;99.90;;;;;;5074673;28;20383;-73
2022/06/20 01:47:12;;;;;;;4.38;1.20;;;15.40;99.90;;;;;;5073940;28;20049;-73
2022/06/20 01:49:40;;;;;;;5.53;1.17;;;15.40;99.90;;;;;;5074156;28;20039;-73
2022/06/20 01:52:17;;;;;;;5.93;1.75;;;15.40;99.90;;;;;;5090350;28;20446;-72
2022/06/20 01:54:52;;;;;;;5.18;1.10;;;15.30;99.90;;;;;;5074032;28;20048;-72
2022/06/20 01:57:18;;;;;;;5.03;1.27;;;15.30;99.90;;;;;;5073935;28;20053;-72
2022/06/20 02:00:07;;;;;;;6.20;1.20;;;15.30;99.90;;;;;;5072927;28;20041;-72
2022/06/20 02:02:39;;;;;;;6.18;1.27;;;15.30;99.90;;;;;;5074124;28;20040;-72
2022/06/20 02:05:08;;;;;;;4.28;1.27;;;15.20;99.90;;;;;;5072905;28;20052;-72
2022/06/20 02:07:35;;;;;;;6.47;1.35;;;15.20;99.90;;;;;;5072648;28;20438;-73
2022/06/20 02:10:03;;;;;;;7.93;1.73;;;15.20;99.90;;;;;;5073016;28;20052;-73
2022/06/20 02:12:32;;;;;;;5.63;1.23;;;15.10;99.90;;;;;;5072724;28;20491;-73
2022/06/20 02:14:59;;;;;;;4.80;1.30;;;15.00;99.90;;;;;;5073892;28;20186;-73
2022/06/20 02:17:33;;;;;;;6.18;1.27;;;14.90;99.90;;;;;;5072710;28;20059;-72
2022/06/20 02:20:05;;;;;;;2.28;0.90;;;14.90;99.90;;;;;;5072503;28;20380;-74
2022/06/20 02:22:33;;;;;;;5.18;1.48;;;15.00;99.90;;;;;;5073778;28;20127;-72
2022/06/20 02:25:06;;;;;;;6.50;1.15;;;15.00;99.90;;;;;;5089292;28;20056;-72
2022/06/20 02:27:47;;;;;;;9.02;1.52;;;15.10;99.90;;;;;;5089121;28;20048;-72
2022/06/20 02:30:14;;;;;;;4.68;1.63;;;15.10;99.90;;;;;;5072201;28;20059;-73
2022/06/20 02:33:11;;;;;;;5.28;1.25;;;15.10;99.90;;;;;;5074026;28;20084;-73
2022/06/20 02:35:37;;;;;;;6.85;1.30;;;15.10;99.90;;;;;;5072857;28;20365;-73
2022/06/20 02:38:03;;;;;;;6.22;1.40;;;15.10;99.90;;;;;;5073426;28;20047;-73
2022/06/20 02:40:31;;;;;;;5.25;1.52;;;15.20;99.90;;;;;;5073450;28;20044;-72
2022/06/20 02:43:04;;;;;;;5.47;1.60;;;15.20;99.90;;;;;;5055694;28;20183;-73
2022/06/20 02:45:33;;;;;;;3.58;1.20;;;15.20;99.90;;;;;;5072783;28;20113;-72
2022/06/20 02:48:02;;;;;;;9.90;1.42;;;15.20;99.90;;;;;;5072279;28;20055;-72
2022/06/20 02:50:32;;;;;;;6.68;1.63;;;15.20;99.90;;;;;;5072553;28;20128;-72
2022/06/20 02:53:14;;;;;;;6.82;1.38;;;15.20;99.90;;;;;;5073290;28;20411;-72
2022/06/20 02:55:40;;;;;;;5.43;1.58;;;15.20;99.90;;;;;;5072429;28;20048;-73
2022/06/20 02:58:13;;;;;;;7.32;1.80;;;15.10;99.90;;;;;;5073011;28;20043;-72
2022/06/20 03:01:11;;;;;;;4.57;1.25;;;15.20;99.90;;;;;;5072384;28;20414;-72
2022/06/20 03:03:43;;;;;;;5.38;1.30;;;15.30;99.90;;;;;;5072246;28;20049;-73
2022/06/20 03:06:12;;;;;;;4.95;1.27;;;15.30;99.90;;;;;;5073300;28;20052;-73
2022/06/20 03:08:38;;;;;;;4.32;1.33;;;15.30;99.90;;;;;;5072187;28;20079;-72
2022/06/20 03:11:05;;;;;;;6.40;1.25;;;15.20;99.90;;;;;;5072352;28;20061;-72
2022/06/20 03:13:33;;;;;;;6.35;1.42;;;15.20;99.90;;;;;;5072152;28;20149;-73
2022/06/20 03:16:01;;;;;;;6.57;1.48;;;15.10;99.90;;;;;;5072965;28;20080;-72
2022/06/20 03:18:28;;;;;;;8.27;1.35;;;15.10;99.90;;;;;;5073160;28;20135;-73
2022/06/20 03:20:54;;;;;;;6.00;1.27;;;15.00;99.90;;;;;;5072138;28;20505;-72
2022/06/20 03:23:31;;;;;;;4.88;1.35;;;14.90;99.90;;;;;;5074424;28;20052;-72
2022/06/20 03:26:01;;;;;;;9.45;1.65;;;14.80;99.90;;;;;;5076853;28;20204;-73
2022/06/20 03:28:30;;;;;;;6.80;1.30;;;14.80;99.90;;;;;;5075110;28;20055;-73
2022/06/20 03:31:00;;;;;;;6.93;1.30;;;14.80;99.90;;;;;;5075988;28;20061;-73
2022/06/20 03:33:27;;;;;;;7.80;1.35;;;14.80;99.90;;;;;;5076584;28;20087;-72
2022/06/20 03:36:09;;;;;;;6.15;1.73;;;14.80;99.90;;;;;;5075638;28;20050;-72
2022/06/20 03:38:37;;;;;;;6.10;1.23;;;14.80;99.90;;;;;;5092540;28;20059;-72
2022/06/20 03:41:05;;;;;;;7.75;1.60;;;14.70;99.90;;;;;;5058993;28;20123;-73
2022/06/20 03:43:32;;;;;;;8.15;1.67;;;14.70;99.90;;;;;;5076276;28;20488;-73
2022/06/20 03:46:15;;;;;;;4.65;1.50;;;14.70;99.90;;;;;;5076545;28;20459;-72
2022/06/20 03:48:49;;;;;;;5.35;1.73;;;14.70;99.90;;;;;;5075437;28;20071;-72
2022/06/20 03:51:21;;;;;;;6.07;1.27;;;14.60;99.90;;;;;;5076267;28;20465;-72
2022/06/20 03:54:42;;;;;;;5.50;1.50;;;14.60;99.90;;;;;;5075275;28;20471;-72
2022/06/20 03:57:24;;;;;;;4.88;1.50;;;14.50;99.90;;;;;;5061938;28;20566;-72
2022/06/20 04:00:11;;;;;;;6.97;1.60;;;14.40;99.90;;;;;;5076164;28;20055;-72
2022/06/20 04:03:01;;;;;;;7.10;1.80;;;14.40;99.90;;;;;;5075400;28;20114;-72
2022/06/20 04:05:54;;;;;;;6.05;1.67;;;14.40;99.90;;;;;;5069329;28;20175;-73
2022/06/20 04:10:57;;;;;;;6.03;1.55;;;14.40;99.90;;;;;;5053593;28;20045;-73
2022/06/20 04:11:15;;;;;;;5.95;1.52;;;14.40;99.90;;;;;;5054623;28;20519;-72
2022/06/20 04:13:50;;;;;;;6.07;1.80;;;14.40;99.90;;;;;;5054899;28;20052;-73
2022/06/20 04:16:24;;;;;;;4.57;1.58;;;14.50;99.90;;;;;;5071939;28;20045;-72
2022/06/20 04:19:09;;;;;;;6.40;2.05;;;14.40;99.90;;;;;;5071661;28;20053;-73
2022/06/20 04:21:45;;;;;;;10.55;2.13;;;14.50;99.90;;;;;;5071613;28;20063;-72
2022/06/20 04:24:34;;;;;;;7.22;2.00;;;14.50;99.90;;;;;;5055905;28;20052;-72
2022/06/20 04:27:28;;;;;;;4.00;1.50;;;14.60;99.90;;;;;;5053282;28;20049;-73
2022/06/20 04:30:02;;;;;;;8.15;1.80;;;14.80;99.90;;;;;;5055947;28;20389;-73
2022/06/20 04:32:39;;;;;;;8.88;2.35;;;14.80;99.90;;;;;;5055880;28;20049;-72
2022/06/20 04:35:13;;;;;;;11.32;2.72;;;14.80;99.90;;;;;;5037570;28;20106;-72
2022/06/20 04:38:01;;;;;;;10.77;2.60;;;14.80;99.90;;;;;;5071306;28;20141;-72
2022/06/20 04:40:35;;;;;;;8.73;2.83;;;14.90;99.90;;;;;;5071468;28;20479;-72
2022/06/20 04:43:28;;;;;;;10.25;3.10;;;14.90;99.90;;;;;;5055479;28;20511;-72
2022/06/20 04:46:25;;;;;;;9.35;2.97;;;15.00;99.90;;;;;;5055502;28;20045;-73
2022/06/20 04:48:52;;;;;;;13.15;3.20;;;15.20;99.90;;;;;;5055541;28;20060;-72
2022/06/20 04:51:22;;;;;;;10.63;2.85;;;15.20;99.90;;;;;;5055379;28;20128;-72
2022/06/20 04:53:49;;;;;;;14.18;2.75;;;15.40;99.90;;;;;;5054463;28;20049;-72
2022/06/20 04:56:26;;;;;;;9.65;2.58;;;15.50;99.90;;;;;;5055053;28;20052;-73
2022/06/20 04:59:05;;;;;;;10.85;2.80;;;15.60;99.90;;;;;;5055115;28;20151;-72
2022/06/20 05:01:36;;;;;;;12.80;2.97;;;15.50;99.90;;;;;;5055230;28;20049;-72
2022/06/20 05:04:25;;;;;;;15.73;3.35;;;15.50;99.90;;;;;;5070644;28;20056;-72
2022/06/20 05:06:53;;;;;;;6.38;2.65;;;15.40;99.90;;;;;;5053782;28;20053;-73
2022/06/20 05:09:30;;;;;;;12.75;3.42;;;15.40;99.90;;;;;;5055108;28;20045;-72
2022/06/20 05:12:14;;;;;;;12.77;3.38;;;15.50;99.90;;;;;;5055065;28;20055;-72
2022/06/20 05:14:50;;;;;;;8.27;2.95;;;15.50;99.90;;;;;;5054796;28;20400;-73
2022/06/20 05:17:25;;;;;;;14.50;3.08;;;15.60;99.90;;;;;;5054986;28;20059;-73
2022/06/20 05:19:55;;;;;;;13.68;3.28;;;15.80;99.90;;;;;;5054699;28;20055;-73
2022/06/20 05:22:26;;;;;;;14.15;3.28;;;15.80;99.90;;;;;;5054834;28;20589;-72
2022/06/20 05:24:54;;;;;;;12.07;3.10;;;16.00;99.90;;;;;;5054850;28;20136;-72
2022/06/20 05:27:24;;;;;;;11.48;2.90;;;16.10;99.90;;;;;;5069996;28;20052;-73
2022/06/20 05:29:54;;;;;;;8.70;2.95;;;16.20;99.90;;;;;;5069934;28;20509;-72
2022/06/20 05:32:35;;;;;;;13.68;3.33;;;16.00;99.90;;;;;;5070121;28;20057;-72
2022/06/20 05:35:21;;;;;;;10.27;3.10;;;16.10;99.90;;;;;;5054662;28;20128;-72
2022/06/20 05:38:03;;;;;;;11.13;3.20;;;16.10;99.90;;;;;;5070078;28;20377;-73
2022/06/20 05:40:47;;;;;;;11.40;3.30;;;15.90;99.90;;;;;;5070149;28;20137;-73
2022/06/20 05:43:20;;;;;;;12.73;3.22;;;15.80;99.90;;;;;;5054555;28;20385;-72
2022/06/20 05:45:54;;;;;;;13.50;3.22;;;15.70;99.90;;;;;;5054264;28;20041;-72
2022/06/20 05:48:28;;;;;;;15.43;3.75;;;15.90;99.90;;;;;;5069621;28;20404;-73
2022/06/20 05:50:59;;;;;;;11.18;3.63;;;16.00;99.90;;;;;;5070197;28;20048;-72
2022/06/20 05:53:43;;;;;;;9.35;3.50;;;16.00;99.90;;;;;;5054485;28;20052;-72
2022/06/20 05:56:22;;;;;;;10.85;3.65;;;16.10;99.90;;;;;;5053194;28;20179;-72
2022/06/20 05:58:49;;;;;;;14.32;3.70;;;16.10;99.90;;;;;;5052793;28;20060;-73
2022/06/20 06:01:19;;;;;;;17.40;4.45;;;16.20;99.90;;;;;;5054149;28;20053;-73
2022/06/20 06:03:50;;;;;;;16.05;3.72;;;16.40;99.90;;;;;;5052932;28;20049;-73
2022/06/20 06:06:40;;;;;;;13.65;3.22;;;16.50;99.90;;;;;;5069622;28;20048;-73
2022/06/20 06:09:25;;;;;;;8.52;3.00;;;16.50;99.90;;;;;;5069383;28;20049;-72
2022/06/20 06:12:04;;;;;;;12.70;3.17;;;16.60;99.90;;;;;;5053868;28;20056;-72
2022/06/20 06:14:37;;;;;;;12.45;2.80;;;16.50;99.90;;;;;;5054018;28;20082;-73
2022/06/20 06:17:11;;;;;;;7.85;2.80;;;16.70;99.90;;;;;;5053963;28;20047;-73
2022/06/20 06:19:48;;;;;;;12.77;3.42;;;16.60;99.90;;;;;;5069465;28;20076;-74
2022/06/20 06:22:21;;;;;;;12.93;2.97;;;16.50;99.90;;;;;;5053960;28;20048;-73
2022/06/20 06:24:52;;;;;;;13.40;2.88;;;16.50;99.90;;;;;;5069478;28;20064;-73
2022/06/20 06:27:26;;;;;;;13.27;3.58;;;16.50;99.90;;;;;;5069394;28;20044;-73
2022/06/20 06:29:57;;;;;;;14.60;3.30;;;16.30;99.90;;;;;;5052061;28;20061;-72
2022/06/20 06:32:35;;;;;;;14.68;3.47;;;16.30;99.90;;;;;;5053460;28;20598;-73
2022/06/20 06:35:06;;;;;;;14.73;3.42;;;16.30;99.90;;;;;;5053481;28;20041;-73
2022/06/20 06:37:41;;;;;;;14.25;3.83;;;16.50;99.90;;;;;;5069274;28;20480;-73
2022/06/20 06:40:32;;;;;;;15.63;3.20;;;16.50;99.90;;;;;;5069408;28;20434;-73
2022/06/20 06:42:59;;;;;;;8.68;2.97;;;16.50;99.90;;;;;;5053435;28;20124;-73
2022/06/20 06:45:28;;;;;;;16.05;2.88;;;16.30;99.90;;;;;;5069193;28;20105;-72
2022/06/20 06:48:30;;;;;;;13.68;2.83;;;16.20;99.90;;;;;;5053248;28;20090;-74
2022/06/20 06:51:20;;;;;;;12.23;2.97;;;16.20;99.90;;;;;;5033688;28;20199;-72
2022/06/20 06:53:59;;;;;;;13.18;2.67;;;16.10;99.90;;;;;;5052020;28;20053;-72
2022/06/20 06:56:38;;;;;;;13.63;3.20;;;15.90;99.90;;;;;;5053401;28;20095;-72
2022/06/20 06:59:29;;;;;;;9.43;2.85;;;16.00;99.90;;;;;;5055702;28;20124;-72
2022/06/20 07:02:00;;;;;;;14.25;3.25;;;16.30;99.90;;;;;;5057473;28;20098;-72
2022/06/20 07:04:50;;;;;;;12.48;2.78;;;16.50;99.90;;;;;;5057246;28;20049;-72
2022/06/20 07:07:23;;;;;;;14.30;2.90;;;16.50;99.90;;;;;;5057168;28;20589;-72
2022/06/20 07:09:51;;;;;;;13.23;3.25;;;16.50;99.90;;;;;;5075844;28;20049;-72
2022/06/20 07:12:35;;;;;;;14.38;2.53;;;16.60;99.90;;;;;;5074064;28;20040;-73
2022/06/20 07:15:14;;;;;;;13.73;2.60;;;16.90;99.90;;;;;;5070648;28;20127;-74
2022/06/20 07:17:55;;;;;;;11.15;2.70;;;17.30;99.90;;;;;;5080158;28;20052;-74
2022/06/20 07:20:25;;;;;;;7.82;2.78;;;17.50;99.90;;;;;;5075592;28;20174;-72
2022/06/20 07:22:51;;;;;;;13.57;2.42;;;17.80;99.90;;;;;;5076385;28;20044;-71
2022/06/20 07:25:23;;;;;;;15.95;2.40;;;17.70;99.90;;;;;;5076064;28;20090;-71
2022/06/20 07:28:00;;;;;;;14.45;2.40;;;17.50;99.90;;;;;;5076720;28;20053;-71
2022/06/20 07:30:31;;;;;;;11.35;2.70;;;17.60;99.90;;;;;;5076538;28;20071;-71
2022/06/20 07:33:12;;;;;;;8.68;2.25;;;17.70;99.90;;;;;;5076900;28;20044;-71
2022/06/20 07:35:45;;;;;;;11.10;1.65;;;17.70;99.90;;;;;;5076867;28;20040;-71
2022/06/20 07:38:31;;;;;;;10.77;1.63;;;17.30;99.90;;;;;;5076672;28;20045;-71
2022/06/20 07:41:13;;;;;;;8.60;2.15;;;17.20;99.90;;;;;;5076576;28;20040;-72
2022/06/20 07:43:43;;;;;;;8.18;1.48;;;17.20;99.90;;;;;;5076940;28;20049;-71
2022/06/20 07:46:19;;;;;;;14.07;2.28;;;17.30;99.90;;;;;;5076895;28;20483;-72
2022/06/20 07:48:47;;;;;;;4.82;1.52;;;17.60;99.90;;;;;;5076379;28;20045;-72
2022/06/20 07:51:39;;;;;;;9.88;2.35;;;17.90;99.90;;;;;;5076392;28;20054;-71
2022/06/20 07:54:18;;;;;;;11.73;1.48;;;18.30;99.90;;;;;;5076481;28;20052;-72
2022/06/20 07:56:52;;;;;;;8.70;1.73;;;18.70;99.90;;;;;;5076189;28;20595;-72
2022/06/20 07:59:33;;;;;;;10.30;2.00;;;18.50;99.90;;;;;;5075594;28;20057;-71
2022/06/20 08:02:13;;;;;;;10.50;1.80;;;17.90;99.90;;;;;;5076292;28;20040;-72
2022/06/20 08:04:42;;;;;;;8.95;1.77;;;17.60;99.90;;;;;;5076619;28;20044;-72
2022/06/20 08:07:39;;;;;;;5.30;1.42;;;17.60;99.90;;;;;;5075285;28;20055;-72
2022/06/20 08:10:15;;;;;;;8.82;1.52;;;17.60;99.90;;;;;;5074908;28;20060;-71
2022/06/20 08:13:06;;;;;;;5.80;1.35;;;17.50;99.90;;;;;;5076314;28;20113;-71
2022/06/20 08:15:40;;;;;;;8.60;1.42;;;17.80;99.90;;;;;;5075957;28;20123;-72
2022/06/20 08:18:06;;;;;;;7.75;1.58;;;18.20;99.90;;;;;;5076006;28;20049;-72
2022/06/20 08:20:47;;;;;;;6.22;1.30;;;18.40;99.90;;;;;;5075957;28;20097;-72
2022/06/20 08:23:34;;;;;;;6.15;1.13;;;18.50;99.90;;;;;;5075957;28;20080;-71
2022/06/20 08:26:03;;;;;;;8.00;1.48;;;18.20;99.90;;;;;;5075147;28;20140;-72
2022/06/20 08:29:00;;;;;;;6.60;1.38;;;18.20;99.90;;;;;;5075094;28;20044;-72
2022/06/20 08:31:29;;;;;;;5.57;1.37;;;18.20;99.90;;;;;;5075918;28;20059;-72
2022/06/20 08:34:10;;;;;;;5.55;1.40;;;17.90;99.90;;;;;;5075837;28;20041;-72
2022/06/20 08:36:45;;;;;;;6.07;1.95;;;18.00;99.90;;;;;;5074810;28;20048;-72
2022/06/20 08:39:35;;;;;;;7.75;1.40;;;18.20;99.90;;;;;;5076053;28;20076;-71
2022/06/20 08:42:09;;;;;;;7.78;1.40;;;18.80;99.90;;;;;;5075719;28;20048;-72
2022/06/20 08:45:12;;;;;;;11.10;1.83;;;18.70;99.90;;;;;;5075381;28;20487;-72
2022/06/20 08:47:48;;;;;;;8.45;1.27;;;18.50;99.90;;;;;;5075388;28;20426;-72
2022/06/20 08:50:25;;;;;;;7.30;1.60;;;18.90;99.90;;;;;;5075463;28;20398;-72
2022/06/20 08:53:13;;;;;;;9.85;1.38;;;19.10;99.90;;;;;;5075512;28;20383;-72
2022/06/20 08:55:44;;;;;;;6.55;1.50;;;18.90;99.90;;;;;;5075401;28;20617;-72
2022/06/20 08:58:23;;;;;;;5.13;1.58;;;18.60;99.90;;;;;;5074744;28;20080;-73
2022/06/20 09:01:15;;;;;;;14.40;2.28;;;18.50;99.90;;;;;;5075795;28;20044;-72
2022/06/20 09:04:05;;;;;;;6.93;1.52;;;18.70;99.90;;;;;;5075075;28;20055;-72
2022/06/20 09:06:40;;;;;;;7.40;1.58;;;18.80;99.90;;;;;;5090941;28;20123;-72
2022/06/20 09:09:14;;;;;;;6.68;1.70;;;19.00;99.90;;;;;;5073972;28;20041;-72
2022/06/20 09:12:15;;;;;;;10.23;2.05;;;19.40;99.90;;;;;;5074950;28;20044;-86
2022/06/20 09:14:43;;;;;;;9.65;1.70;;;19.00;99.90;;;;;;5074956;28;20097;-73
2022/06/20 09:17:33;;;;;;;7.28;1.75;;;18.70;99.90;;;;;;5074874;28;20097;-72
2022/06/20 09:20:13;;;;;;;5.15;1.65;;;18.50;99.90;;;;;;5074645;28;20498;-73
2022/06/20 09:23:08;;;;;;;5.20;1.10;;;18.70;99.90;;;;;;5073832;28;20119;-88
2022/06/20 09:25:46;;;;;;;10.43;1.90;;;18.40;99.90;;;;;;5090758;28;20103;-75
2022/06/20 09:28:15;;;;;;;5.45;1.40;;;18.00;99.90;;;;;;5056415;28;20080;-74
2022/06/20 09:31:08;;;;;;;3.55;1.33;;;18.00;99.90;;;;;;5073767;28;20446;-75
2022/06/20 09:33:57;;;;;;;7.43;1.10;;;18.30;99.90;;;;;;5073380;28;20118;-75
2022/06/20 09:36:49;;;;;;;6.28;1.00;;;18.20;99.80;;;;;;5064055;28;20056;-85
2022/06/20 09:39:46;;;;;;;4.45;1.25;;;18.20;99.60;;;;;;5073554;28;20048;-80
2022/06/20 09:42:30;;;;;;;3.83;1.10;;;18.10;99.90;;;;;;5073173;28;20052;-71
2022/06/20 09:45:14;;;;;;;4.85;1.48;;;18.30;99.90;;;;;;5074527;28;20373;-71
2022/06/20 09:48:22;;;;;;;4.60;1.00;;;18.80;99.50;;;;;;5074104;28;20044;-72
2022/06/20 09:50:59;;;;;;;;;;;19.00;99.70;;;;;;5057102;28;20454;-71
2022/06/20 09:53:50;;;;;;;3.42;1.00;;;19.10;99.60;;;;;;5074282;28;20401;-71
2022/06/20 09:57:05;;;;;;;8.60;1.20;;;18.90;99.90;;;;;;5074471;28;20461;-69
2022/06/20 09:59:45;;;;;;;7.38;1.60;;;18.80;99.90;;;;;;5073897;28;20178;-72
2022/06/20 10:02:26;;;;;;;5.55;1.23;;;18.80;99.90;;;;;;5073956;28;20045;-85
2022/06/20 10:05:30;;;;;;;6.32;1.60;;;18.50;99.90;;;;;;5072964;28;20048;-79
2022/06/20 10:08:27;;;;;;;3.95;1.38;;;18.30;99.90;;;;;;5073104;28;20048;-79
2022/06/20 10:11:06;;;;;;;3.85;1.23;;;18.50;99.90;;;;;;5049121;28;20461;-80
2022/06/20 10:13:37;;;;;;;4.13;1.33;;;18.80;99.90;;;;;;5073064;28;20056;-84
2022/06/20 10:16:14;;;;;;;5.93;1.20;;;19.10;99.90;;;;;;5074419;28;20048;-72
2022/06/20 10:19:08;;;;;;;5.93;1.30;;;19.10;99.90;;;;;;5074670;28;20557;-71
2022/06/20 10:22:01;;;;;;;3.53;1.02;;;19.40;99.70;;;;;;5072870;28;20051;-74
2022/06/20 10:24:29;;;;;;;7.80;1.02;;;19.80;99.90;;;;;;5072799;28;20171;-72
2022/06/20 10:27:08;;;;;;;9.50;1.58;;;20.20;99.70;;;;;;5073262;28;20503;-73
2022/06/20 10:29:52;;;;;;;7.05;1.00;;;20.00;99.20;;;;;;5072441;28;20153;-72
2022/06/20 10:32:26;;;;;;;6.18;1.05;;;19.90;99.70;;;;;;5073057;28;20064;-72
2022/06/20 10:35:24;;;;;;;5.65;1.77;;;19.80;99.30;;;;;;5073474;28;20048;-73
2022/06/20 10:38:02;;;;;;;7.25;1.13;;;19.70;99.70;;;;;;5053442;28;20048;-72
2022/06/20 10:40:45;;;;;;;3.83;1.05;;;19.80;99.30;;;;;;5073334;28;20380;-74
2022/06/20 10:43:14;;;;;;;4.05;0.90;;;20.00;99.30;;;;;;5072364;28;20056;-73
2022/06/20 10:45:58;;;;;;;7.03;1.25;;;19.90;99.00;;;;;;5073407;28;20048;-74
2022/06/20 10:48:45;;;;;;;5.55;1.30;;;19.90;99.10;;;;;;5073767;28;20060;-74
2022/06/20 10:51:20;;;;;;;4.15;1.10;;;20.30;99.00;;;;;;5073445;28;20129;-76
2022/06/20 10:54:02;;;;;;;4.10;1.30;;;20.40;99.20;;;;;;5072683;28;20545;-84
2022/06/20 10:56:42;;;;;;;3.85;0.93;;;20.70;99.50;;;;;;5089365;28;20052;-84
2022/06/20 10:59:11;;;;;;;5.85;1.30;;;20.50;98.50;;;;;;5071972;28;20067;-83
2022/06/20 11:01:42;;;;;;;5.85;1.15;;;20.60;98.90;;;;;;5073020;28;20097;-87
2022/06/20 11:04:32;;;;;;;5.35;1.20;;;20.30;99.10;;;;;;5055900;28;20048;-89
2022/06/20 11:07:42;;;;;;;4.68;1.15;;;20.00;99.10;;;;;;5089635;28;20048;-75
2022/06/20 11:10:32;;;;;;;4.10;1.23;;;19.90;99.30;;;;;;5056556;28;20056;-81
2022/06/20 11:13:20;;;;;;;7.72;1.90;;;19.90;99.20;;;;;;5055317;28;20085;-84
2022/06/20 11:15:57;;;;;;;7.45;1.40;;;19.90;99.10;;;;;;5072331;28;20084;-74
2022/06/20 11:18:42;;;;;;;4.43;1.33;;;20.60;99.10;;;;;;5072988;28;20048;-76
2022/06/20 11:21:25;;;;;;;7.05;1.55;;;21.10;99.00;;;;;;5055283;28;20040;-78
2022/06/20 11:23:56;;;;;;;7.15;1.45;;;21.30;99.20;;;;;;5072555;28;20060;-80
2022/06/20 11:27:21;;;;;;;2.38;1.05;;;20.80;99.00;;;;;;5071846;28;20125;-70
2022/06/20 11:29:58;;;;;;;7.22;1.50;;;20.40;99.20;;;;;;5038666;28;20048;-70
2022/06/20 11:32:46;;;;;;;4.82;1.13;;;20.70;98.60;;;;;;5072028;28;20439;-71
2022/06/20 11:35:49;;;;;;;6.80;1.40;;;20.90;98.80;;;;;;5071680;28;20127;-71
2022/06/20 11:38:27;;;;;;;6.35;1.25;;;20.60;98.50;;;;;;5073229;28;20051;-71
2022/06/20 11:41:00;;;;;;;3.47;1.00;;;20.40;99.00;;;;;;5073025;28;20103;-71
2022/06/20 11:44:15;;;;;;;4.90;1.20;;;20.70;98.60;;;;;;5072942;28;20048;-73
2022/06/20 11:46:47;;;;;;;3.22;1.00;;;21.10;98.20;;;;;;5075790;28;20106;-73
2022/06/20 11:49:42;;;;;;;3.97;1.00;;;21.20;98.20;;;;;;5074918;28;20440;-74
2022/06/20 11:52:32;;;;;;;5.68;1.02;;;21.40;97.90;;;;;;5075618;28;20103;-74
2022/06/20 11:55:31;;;;;;;4.53;1.30;;;21.60;97.90;;;;;;5092659;28;20048;-73
2022/06/20 11:58:35;;;;;;;4.40;0.95;;;21.60;98.00;;;;;;5074310;28;20103;-74
2022/06/20 12:01:21;;;;;;;5.53;1.17;;;21.70;97.90;;;;;;5075646;28;20056;-73
2022/06/20 12:03:54;;;;;;;4.78;1.42;;;21.30;98.50;;;;;;5075238;28;20048;-73
2022/06/20 12:06:30;;;;;;;8.13;1.40;;;21.10;98.90;;;;;;5076470;28;20044;-73
2022/06/20 12:09:00;;;;;;;;;;;21.00;98.90;;;;;;5075869;28;20078;-73
2022/06/20 12:11:58;;;;;;;5.63;1.63;;;20.40;99.10;;;;;;5074946;28;19920;-73
2022/06/20 12:14:26;;;;;;;4.75;1.40;;;20.10;99.40;;;;;;5075054;28;20048;-74
2022/06/20 12:17:05;;;;;;;6.82;1.90;;;20.40;99.80;;;;;;5076051;28;20060;-74
2022/06/20 12:25:28;;;;;;;7.20;1.58;;;22.30;99.10;;;;;;5074872;28;20051;-73
2022/06/20 12:27:53;;;;;;;6.55;1.52;;;22.20;98.60;;;;;;5075411;28;20048;-74
2022/06/20 12:30:20;;;;;;;5.38;1.45;;;22.20;98.60;;;;;;5075998;28;20110;-73
2022/06/20 12:32:50;;;;;;;5.45;1.25;;;22.30;98.10;;;;;;5074794;28;20055;-73
2022/06/20 12:35:27;;;;;;;3.47;1.15;;;22.70;98.70;;;;;;5075855;28;20049;-74
2022/06/20 12:38:20;;;;;;;5.50;1.23;;;22.20;98.30;;;;;;5075783;28;20092;-73
2022/06/20 12:40:55;;;;;;;3.90;1.20;;;22.00;98.20;;;;;;5053875;28;20435;-74
2022/06/20 12:43:34;;;;;;;4.88;1.10;;;22.20;98.20;;;;;;5075635;28;20395;-73
2022/06/20 12:46:03;;;;;;;5.60;1.27;;;21.70;98.30;;;;;;5091680;28;20049;-73
2022/06/20 12:48:43;;;;;;;9.48;1.75;;;21.40;98.50;;;;;;5075701;28;20040;-85
2022/06/20 12:51:16;;;;;;;5.32;1.45;;;20.60;99.20;;;;;;5074661;28;20099;-85
2022/06/20 12:54:11;;;;;;;7.13;1.50;;;19.60;99.50;;;;;;5074632;28;20048;-72
2022/06/20 12:56:52;;;;;;;6.43;1.50;;;19.60;99.60;;;;;;5073737;28;20088;-71
2022/06/20 12:59:53;;;;;;;5.30;1.60;;;20.00;99.50;;;;;;5057330;28;20102;-71
2022/06/20 13:02:41;;;;;;;5.55;1.45;;;20.10;99.50;;;;;;5074167;28;20091;-71
2022/06/20 13:05:39;;;;;;;6.93;1.65;;;20.70;99.60;;;;;;5075200;28;20086;-72
2022/06/20 13:08:16;;;;;;;6.57;1.45;;;21.30;99.30;;;;;;5075285;28;20403;-72
2022/06/20 13:10:56;;;;;;;3.65;1.17;;;21.30;99.00;;;;;;5074833;28;20403;-72
2022/06/20 13:13:45;;;;;;;5.05;1.20;;;21.00;98.90;;;;;;5075249;28;20048;-72
2022/06/20 13:16:39;;;;;;;4.63;0.90;;;21.10;99.10;;;;;;5074252;28;20052;-72
2022/06/20 13:19:40;;;;;;;5.68;0.93;;;21.30;98.60;;;;;;5074624;28;20507;-72
2022/06/20 13:22:28;;;;;;;4.55;1.33;;;20.90;98.40;;;;;;5074161;28;20048;-72
2022/06/20 13:25:18;;;;;;;6.97;1.50;;;20.60;98.80;;;;;;5074715;28;20515;-72
2022/06/20 13:28:09;;;;;;;3.00;1.10;;;20.50;99.10;;;;;;5074277;28;20048;-73
2022/06/20 13:31:12;;;;;;;6.45;1.20;;;20.30;99.20;;;;;;5076083;28;20514;-70
2022/06/20 13:33:54;;;;;;;3.25;1.20;;;20.90;98.80;;;;;;5074497;28;20044;-71
2022/06/20 13:36:26;;;;;;;4.80;1.42;;;21.90;99.10;;;;;;5074920;28;20044;-73
2022/06/20 13:39:05;;;;;;;5.32;1.17;;;22.20;98.50;;;;;;5074662;28;20047;-72
2022/06/20 13:41:39;;;;;;;5.90;1.77;;;21.90;98.60;;;;;;5074361;28;20040;-72
2022/06/20 13:44:37;;;;;;;8.85;1.50;;;21.60;98.90;;;;;;5074225;28;20053;-72
2022/06/20 13:47:17;;;;;;;6.05;1.60;;;21.90;98.90;;;;;;5074486;28;20041;-72
2022/06/20 13:49:58;;;;;;;7.53;1.35;;;22.30;98.90;;;;;;5074038;28;20040;-72
2022/06/20 13:52:37;;;;;;;7.57;1.50;;;21.90;98.60;;;;;;5074276;28;20487;-73